createdAt,value
2023-11-24T02:56:55.658Z,10.80
2023-11-24T02:59:45.931Z,3.90
2023-11-24T03:02:45.794Z,3.90
2023-11-24T03:05:33.280Z,3.80
2023-11-24T03:08:18.826Z,3.80
2023-11-24T03:11:08.532Z,3.80
2023-11-24T03:13:49.184Z,3.80
2023-11-24T03:16:34.513Z,3.80
2023-11-24T03:19:28.925Z,3.80
2023-11-24T03:22:10.866Z,3.80
2023-11-24T03:25:06.581Z,3.80
2023-11-24T03:28:02.460Z,3.90
2023-11-24T03:30:48.305Z,3.80
2023-11-24T03:33:38.620Z,3.90
2023-11-24T03:36:26.218Z,4.00
2023-11-24T03:39:38.420Z,4.20
2023-11-24T03:42:23.302Z,4.30
2023-11-24T03:45:07.813Z,4.40
2023-11-24T03:48:03.357Z,4.40
2023-11-24T03:51:00.717Z,4.50
2023-11-24T03:53:43.460Z,4.60
2023-11-24T03:56:36.427Z,4.60
2023-11-24T03:59:19.248Z,4.70
2023-11-24T04:02:15.523Z,4.70
2023-11-24T04:05:12.131Z,4.70
2023-11-24T04:07:55.114Z,4.60
2023-11-24T04:10:43.764Z,4.60
2023-11-24T04:13:28.568Z,4.70
2023-11-24T04:16:16.442Z,4.80
2023-11-24T04:19:07.677Z,4.80
2023-11-24T04:22:10.373Z,4.90
2023-11-24T04:25:08.457Z,4.90
2023-11-24T04:28:01.286Z,4.90
2023-11-24T04:30:42.922Z,4.90
2023-11-24T04:33:23.516Z,4.70
2023-11-24T04:36:14.435Z,4.50
2023-11-24T04:38:57.081Z,4.30
2023-11-24T04:41:41.186Z,4.10
2023-11-24T04:44:24.946Z,3.80
2023-11-24T04:47:14.256Z,3.60
2023-11-24T04:49:53.719Z,3.50
2023-11-24T04:52:31.389Z,3.40
2023-11-24T04:55:13.607Z,3.30
2023-11-24T04:57:55.378Z,3.20
2023-11-24T05:00:35.627Z,3.20
2023-11-24T05:03:20.226Z,3.30
2023-11-24T05:06:01.773Z,3.30
2023-11-24T05:08:47.914Z,3.40
2023-11-24T05:11:40.593Z,3.50
2023-11-24T05:14:33.910Z,3.50
2023-11-24T05:17:17.500Z,3.60
2023-11-24T05:20:05.193Z,3.60
2023-11-24T05:22:42.965Z,3.50
2023-11-24T05:25:19.041Z,3.60
2023-11-24T05:28:03.212Z,3.60
2023-11-24T05:30:45.199Z,3.60
2023-11-24T05:34:42.744Z,3.60
2023-11-24T05:37:22.213Z,3.60
2023-11-24T05:40:01.092Z,3.60
2023-11-24T05:42:48.184Z,3.60
2023-11-24T05:45:33.805Z,3.60
2023-11-24T05:48:11.933Z,3.50
2023-11-24T05:50:58.048Z,3.60
2023-11-24T05:53:37.777Z,3.60
2023-11-24T05:56:16.832Z,3.60
2023-11-24T05:59:03.743Z,3.60
2023-11-24T06:01:43.911Z,3.70
2023-11-24T06:04:27.517Z,3.70
2023-11-24T06:07:04.395Z,3.70
2023-11-24T06:09:45.414Z,3.80
2023-11-24T06:12:24.043Z,3.80
2023-11-24T06:15:01.583Z,3.80
2023-11-24T06:17:41.010Z,3.80
2023-11-24T06:20:25.556Z,3.80
2023-11-24T06:23:07.263Z,3.80
2023-11-24T06:25:52.788Z,3.80
2023-11-24T06:28:33.440Z,3.80
2023-11-24T06:31:15.105Z,3.90
2023-11-24T06:33:56.655Z,3.80
2023-11-24T06:36:40.496Z,3.80
2023-11-24T06:39:22.240Z,3.80
2023-11-24T06:42:00.710Z,3.80
2023-11-24T06:44:37.241Z,3.80
2023-11-24T06:47:27.714Z,3.90
2023-11-24T06:50:10.130Z,3.90
2023-11-24T06:52:54.541Z,4.00
2023-11-24T06:55:36.609Z,4.10
2023-11-24T06:58:39.701Z,4.20
2023-11-24T07:01:44.843Z,4.20
2023-11-24T07:04:36.020Z,4.20
2023-11-24T07:07:26.416Z,4.30
2023-11-24T07:10:14.859Z,4.30
2023-11-24T07:12:55.489Z,4.30
2023-11-24T07:15:57.653Z,4.30
2023-11-24T07:18:39.775Z,4.30
2023-11-24T07:21:18.025Z,4.30
2023-11-24T07:23:58.446Z,4.20
2023-11-24T07:26:41.353Z,4.20
2023-11-24T07:29:20.028Z,4.20
2023-11-24T07:31:58.326Z,4.20
2023-11-24T07:34:35.646Z,4.20
2023-11-24T07:37:19.132Z,4.20
2023-11-24T07:40:01.747Z,4.10
2023-11-24T07:42:46.396Z,4.10
2023-11-24T07:45:28.143Z,4.10
2023-11-24T07:48:05.912Z,4.10
2023-11-24T07:50:50.362Z,4.10
2023-11-24T07:53:33.182Z,4.10
2023-11-24T07:56:27.509Z,4.20
2023-11-24T07:59:16.681Z,4.20
2023-11-24T08:02:08.912Z,4.30
2023-11-24T08:05:00.807Z,4.40
2023-11-24T08:07:45.437Z,4.40
2023-11-24T08:10:36.445Z,4.50
2023-11-24T08:13:21.014Z,4.60
2023-11-24T08:16:01.773Z,4.70
2023-11-24T08:18:49.552Z,4.70
2023-11-24T08:21:33.067Z,4.80
2023-11-24T08:24:20.378Z,4.80
2023-11-24T08:27:11.825Z,4.80
2023-11-24T08:29:58.873Z,4.80
2023-11-24T08:32:42.561Z,4.70
2023-11-24T08:35:29.199Z,4.70
2023-11-24T08:38:20.039Z,4.60
2023-11-24T08:40:56.374Z,4.60
2023-11-24T08:43:44.316Z,4.60
2023-11-24T08:46:37.230Z,4.70
2023-11-24T08:49:28.496Z,4.70
2023-11-24T08:52:18.212Z,4.70
2023-11-24T08:55:01.156Z,4.70
2023-11-24T08:57:54.156Z,4.70
2023-11-24T09:00:41.502Z,4.80
2023-11-24T09:03:33.113Z,4.80
2023-11-24T09:06:17.234Z,4.80
2023-11-24T09:09:10.458Z,4.90
2023-11-24T09:11:52.923Z,4.90
2023-11-24T09:14:37.870Z,4.90
2023-11-24T09:17:22.575Z,4.90
2023-11-24T09:20:15.951Z,4.90
2023-11-24T09:22:58.707Z,5.10
2023-11-24T09:25:41.729Z,5.10
2023-11-24T09:28:32.291Z,5.10
2023-11-24T09:31:16.885Z,5.00
2023-11-24T09:34:05.652Z,5.00
2023-11-24T09:37:03.550Z,4.90
2023-11-24T09:40:04.758Z,5.00
2023-11-24T09:43:03.489Z,4.90
2023-11-24T09:45:52.563Z,5.00
2023-11-24T09:48:43.842Z,5.00
2023-11-24T09:51:52.196Z,5.00
2023-11-24T09:54:47.581Z,4.90
2023-11-24T09:57:36.770Z,4.90
2023-11-24T10:00:24.237Z,5.00
2023-11-24T10:03:12.199Z,5.10
2023-11-24T10:08:30.344Z,5.00
2023-11-24T10:11:30.992Z,5.30
2023-11-24T10:14:07.960Z,5.30
2023-11-24T10:16:44.151Z,5.20
2023-11-24T10:19:22.056Z,5.40
2023-11-24T10:22:00.615Z,5.40
2023-11-24T10:24:46.462Z,5.40
2023-11-24T10:27:27.972Z,5.40
2023-11-24T10:30:01.919Z,5.50
2023-11-24T10:32:48.039Z,5.50
2023-11-24T10:35:39.892Z,5.60
2023-11-24T10:38:27.211Z,5.60
2023-11-24T10:41:23.763Z,5.50
2023-11-24T10:44:18.292Z,5.50
2023-11-24T10:47:16.345Z,5.50
2023-11-24T10:50:14.488Z,5.50
2023-11-24T10:53:02.836Z,5.60
2023-11-24T10:55:55.680Z,5.60
2023-11-24T10:58:37.352Z,5.70
2023-11-24T11:01:31.332Z,5.80
2023-11-24T11:04:16.370Z,5.80
2023-11-24T11:07:20.664Z,5.80
2023-11-24T11:10:06.475Z,5.80
2023-11-24T11:13:03.904Z,5.80
2023-11-24T11:32:45.768Z,5.90
2023-11-24T11:35:41.751Z,6.00
2023-11-24T11:38:42.944Z,6.00
2023-11-24T11:41:59.651Z,5.90
2023-11-24T11:44:43.773Z,5.70
2023-11-24T11:47:38.291Z,5.90
2023-11-24T11:50:45.996Z,5.90
2023-11-24T11:53:32.832Z,5.90
2023-11-24T11:56:30.820Z,5.90
2023-11-24T11:59:18.044Z,5.90
2023-11-24T12:02:04.451Z,5.80
2023-11-24T12:04:47.431Z,5.80
2023-11-24T12:07:30.703Z,5.90
2023-11-24T12:10:21.174Z,5.90
2023-11-24T12:13:01.505Z,6.10
2023-11-24T12:15:50.683Z,6.10
2023-11-24T12:18:30.095Z,6.00
2023-11-24T12:21:27.390Z,6.00
2023-11-24T12:24:25.924Z,5.90
2023-11-24T12:27:10.042Z,5.90
2023-11-24T12:29:53.297Z,6.10
2023-11-24T12:32:43.354Z,6.40
2023-11-24T12:35:30.557Z,6.60
2023-11-24T12:38:14.515Z,6.40
2023-11-24T12:41:01.144Z,6.30
2023-11-24T12:43:44.430Z,6.20
2023-11-24T12:46:35.671Z,6.10
2023-11-24T12:49:15.547Z,6.00
2023-11-24T12:51:56.978Z,6.00
2023-11-24T12:54:42.990Z,5.80
2023-11-24T12:57:32.465Z,5.80
2023-11-24T13:00:17.448Z,5.80
2023-11-24T13:02:55.864Z,5.70
2023-11-24T13:05:47.197Z,5.80
2023-11-24T13:08:28.952Z,5.90
2023-11-24T13:11:15.022Z,5.90
2023-11-24T13:14:10.613Z,5.90
2023-11-24T13:16:58.803Z,5.80
2023-11-24T13:19:45.726Z,5.70
2023-11-24T13:22:29.509Z,5.60
2023-11-24T13:25:08.674Z,5.50
2023-11-24T13:27:48.430Z,5.50
2023-11-24T13:30:32.479Z,5.40
2023-11-24T13:33:16.747Z,5.30
2023-11-24T13:35:53.343Z,5.20
2023-11-24T13:38:39.588Z,5.10
2023-11-24T13:41:24.047Z,5.00
2023-11-24T13:44:05.971Z,4.90
2023-11-24T13:46:48.124Z,4.90
2023-11-24T13:49:31.073Z,4.90
2023-11-24T13:52:26.893Z,4.90
2023-11-24T13:55:07.829Z,4.80
2023-11-24T13:57:58.195Z,4.80
2023-11-24T14:00:46.129Z,4.80
2023-11-24T14:03:35.899Z,4.90
2023-11-24T14:06:29.912Z,4.80
2023-11-24T14:12:01.730Z,4.70
2023-11-24T14:14:45.833Z,4.70
2023-11-24T14:17:42.548Z,4.70
2023-11-24T14:20:32.067Z,4.70
2023-11-24T14:23:13.421Z,4.80
2023-11-24T14:25:55.645Z,4.80
2023-11-24T14:28:34.999Z,4.70
2023-11-24T14:31:21.822Z,4.80
2023-11-24T14:34:07.777Z,4.80
2023-11-24T14:36:53.047Z,4.70
2023-11-24T14:39:40.153Z,4.70
2023-11-24T14:45:12.664Z,4.50
2023-11-24T14:47:53.970Z,4.50
2023-11-24T14:50:36.895Z,4.50
2023-11-24T14:53:24.064Z,4.40
2023-11-24T14:56:04.908Z,4.40
2023-11-24T14:58:52.874Z,4.40
2023-11-24T15:01:41.467Z,4.40
2023-11-24T15:04:22.297Z,4.50
2023-11-24T15:07:17.097Z,4.50
2023-11-24T15:10:19.738Z,4.50
2023-11-24T15:13:03.519Z,4.50
2023-11-24T15:16:01.711Z,4.50
2023-11-24T15:18:48.135Z,4.50
2023-11-24T15:21:35.237Z,4.50
2023-11-24T15:24:17.913Z,4.50
2023-11-24T15:27:03.231Z,4.50
2023-11-24T15:29:59.623Z,4.60
2023-11-24T15:32:49.449Z,4.50
2023-11-24T15:35:43.727Z,4.60
2023-11-24T15:38:39.323Z,4.60
2023-11-24T15:41:40.855Z,4.60
2023-11-24T15:44:28.717Z,4.60
2023-11-24T15:47:17.029Z,4.60
2023-11-24T15:50:04.547Z,4.60
2023-11-24T15:52:52.910Z,4.60
2023-11-24T15:55:40.946Z,4.50
2023-11-24T15:58:19.487Z,4.50
2023-11-24T16:01:11.620Z,4.50
2023-11-24T16:03:56.569Z,4.50
2023-11-24T16:06:50.424Z,4.40
2023-11-24T16:09:34.182Z,4.40
2023-11-24T16:12:34.125Z,4.30
2023-11-24T16:15:24.658Z,4.30
2023-11-24T16:18:16.774Z,4.30
2023-11-24T16:21:01.272Z,4.20
2023-11-24T16:23:53.330Z,4.20
2023-11-24T16:26:33.784Z,4.10
2023-11-24T16:29:21.713Z,4.20
2023-11-24T16:32:02.650Z,4.20
2023-11-24T16:35:00.001Z,4.20
2023-11-24T16:37:59.657Z,4.10
2023-11-24T16:40:47.567Z,4.20
2023-11-24T16:43:30.002Z,4.20
2023-11-24T16:46:21.913Z,4.20
2023-11-24T16:48:59.432Z,4.30
2023-11-24T16:51:57.203Z,4.30
2023-11-24T16:54:43.541Z,4.20
2023-11-24T16:57:46.413Z,4.20
2023-11-24T17:00:34.715Z,4.20
2023-11-24T17:03:28.939Z,4.30
2023-11-24T17:06:09.258Z,4.20
2023-11-24T17:08:55.413Z,4.20
2023-11-24T17:11:43.055Z,4.10
2023-11-24T17:14:24.346Z,3.90
2023-11-24T17:17:15.124Z,3.80
2023-11-24T17:20:08.296Z,3.80
2023-11-24T17:23:10.528Z,3.80
2023-11-24T17:26:01.994Z,3.80
2023-11-24T17:28:52.149Z,3.80
2023-11-24T17:31:37.060Z,3.60
2023-11-24T17:34:23.363Z,3.60
2023-11-24T17:37:21.053Z,3.50
2023-11-24T17:40:03.785Z,3.40
2023-11-24T17:42:59.807Z,3.40
2023-11-24T17:45:44.529Z,3.40
2023-11-24T17:48:30.169Z,3.40
2023-11-24T17:51:27.901Z,3.50
2023-11-24T17:54:20.177Z,3.60
2023-11-24T17:57:06.073Z,3.50
2023-11-24T17:59:50.680Z,3.50
2023-11-24T18:02:30.559Z,3.50
2023-11-24T18:05:15.164Z,3.50
2023-11-24T18:11:03.576Z,3.60
2023-11-24T18:13:54.274Z,3.70
2023-11-24T18:16:43.308Z,3.70
2023-11-24T18:19:21.564Z,3.70
2023-11-24T18:22:09.093Z,3.70
2023-11-24T18:24:59.957Z,3.70
2023-11-24T18:27:54.970Z,3.70
2023-11-24T18:30:47.154Z,3.70
2023-11-24T18:33:39.676Z,3.80
2023-11-24T18:36:32.854Z,3.80
2023-11-24T18:39:20.578Z,3.80
2023-11-24T18:42:11.304Z,3.90
2023-11-24T18:44:52.648Z,3.80
2023-11-24T18:47:41.924Z,3.80
2023-11-24T18:50:28.122Z,3.80
2023-11-24T18:53:18.189Z,3.80
2023-11-24T18:56:06.059Z,3.70
2023-11-24T18:58:51.844Z,3.70
2023-11-24T19:01:29.304Z,3.60
2023-11-24T19:04:14.003Z,3.60
2023-11-24T19:07:06.138Z,3.60
2023-11-24T19:09:58.010Z,3.70
2023-11-24T19:12:47.897Z,3.60
2023-11-24T19:15:28.431Z,3.60
2023-11-24T19:18:16.349Z,3.50
2023-11-24T19:20:58.448Z,3.50
2023-11-24T19:23:51.996Z,3.30
2023-11-24T19:26:34.089Z,3.30
2023-11-24T19:29:13.747Z,3.20
2023-11-24T19:32:05.948Z,3.10
2023-11-24T19:34:47.480Z,3.10
2023-11-24T19:37:28.104Z,3.20
2023-11-24T19:40:12.063Z,3.20
2023-11-24T19:42:54.048Z,3.30
2023-11-24T19:48:35.248Z,3.10
2023-11-24T19:51:12.267Z,3.10
2023-11-24T19:53:57.545Z,3.10
2023-11-24T19:56:48.161Z,3.10
2023-11-24T19:59:29.008Z,3.10
2023-11-24T20:02:15.608Z,3.00
2023-11-24T20:05:02.428Z,3.00
2023-11-24T20:07:39.142Z,3.00
2023-11-24T20:10:32.968Z,3.00
2023-11-24T20:13:16.696Z,2.90
2023-11-24T20:15:59.117Z,3.00
2023-11-24T20:18:36.581Z,2.80
2023-11-24T20:21:11.521Z,2.70
2023-11-24T20:23:52.959Z,2.30
2023-11-24T20:26:31.495Z,1.90
2023-11-24T20:29:40.389Z,1.60
2023-11-24T20:32:28.818Z,1.30
2023-11-24T20:35:14.946Z,1.20
2023-11-24T20:37:53.454Z,1.20
2023-11-24T20:40:55.478Z,1.30
2023-11-24T20:43:42.350Z,1.30
2023-11-24T20:46:24.684Z,1.40
2023-11-24T20:49:06.238Z,1.40
2023-11-24T20:51:56.773Z,1.30
2023-11-24T20:54:42.464Z,1.30
2023-11-24T20:57:19.782Z,1.30
2023-11-24T20:59:57.985Z,1.30
2023-11-24T21:02:45.233Z,1.30
2023-11-24T21:05:23.896Z,1.40
2023-11-24T21:08:00.553Z,1.40
2023-11-24T21:10:45.341Z,1.40
2023-11-24T21:13:24.095Z,1.40
2023-11-24T21:15:58.477Z,1.40
2023-11-24T21:18:33.861Z,1.40
2023-11-24T21:21:10.326Z,1.40
2023-11-24T21:29:05.540Z,1.40
2023-11-24T21:31:45.551Z,1.30
2023-11-24T21:34:33.746Z,1.40
2023-11-24T21:37:12.921Z,1.30
2023-11-24T21:39:52.459Z,1.30
